createdAt,value
2023-05-23T00:00:08.533Z,99268.06
2023-05-23T00:00:20.712Z,99273.31
2023-05-23T00:00:33.499Z,99267.31
2023-05-23T00:00:45.519Z,99273.31
2023-05-23T00:00:58.400Z,99269.97
2023-05-23T00:01:14.745Z,99275.25
2023-05-23T00:01:27.527Z,99269.25
2023-05-23T00:01:39.846Z,99273.56
2023-05-23T00:01:54.819Z,99272.84
2023-05-23T00:02:08.654Z,99273.31
2023-05-23T00:02:20.805Z,99277.63
2023-05-23T00:02:32.886Z,99277.63
2023-05-23T00:02:45.103Z,99269.81
2023-05-23T00:02:57.249Z,99267.06
2023-05-23T00:03:12.178Z,99269.59
2023-05-23T00:03:27.497Z,99273.91
2023-05-23T00:03:39.732Z,99271.16
2023-05-23T00:03:54.091Z,99265.88
2023-05-23T00:04:06.657Z,99268.50
2023-05-23T00:04:18.900Z,99266.38
2023-05-23T00:04:31.099Z,99267.47
2023-05-23T00:04:43.286Z,99266.59
2023-05-23T00:04:58.516Z,99271.75
2023-05-23T00:05:10.656Z,99267.56
2023-05-23T00:05:22.660Z,99263.25
2023-05-23T00:05:34.811Z,99266.13
2023-05-23T00:05:47.760Z,99278.59
2023-05-23T00:06:01.895Z,99267.31
2023-05-23T00:06:14.791Z,99269.94
2023-05-23T00:06:26.814Z,99263.97
2023-05-23T00:06:39.070Z,99266.59
2023-05-23T00:06:51.250Z,99262.25
2023-05-23T00:07:04.146Z,99263.97
2023-05-23T00:07:16.394Z,99267.53
2023-05-23T00:07:28.380Z,99267.31
2023-05-23T00:07:40.353Z,99269.22
2023-05-23T00:07:52.547Z,99270.06
2023-05-23T00:08:04.610Z,99262.25
2023-05-23T00:08:17.315Z,99266.69
2023-05-23T00:08:29.341Z,99267.53
2023-05-23T00:08:41.402Z,99271.13
2023-05-23T00:08:53.402Z,99270.16
2023-05-23T00:09:05.458Z,99270.88
2023-05-23T00:09:17.503Z,99268.25
2023-05-23T00:09:29.591Z,99271.72
2023-05-23T00:09:41.611Z,99268.59
2023-05-23T00:09:53.605Z,99267.78
2023-05-23T00:10:06.175Z,99270.41
2023-05-23T00:10:18.183Z,99263.34
2023-05-23T00:10:30.202Z,99273.03
2023-05-23T00:10:42.199Z,99266.09
2023-05-23T00:10:54.288Z,99267.78
2023-05-23T00:11:06.347Z,99266.81
2023-05-23T00:11:20.225Z,99277.34
2023-05-23T00:11:32.247Z,99270.28
2023-05-23T00:11:47.351Z,99269.44
2023-05-23T00:11:59.434Z,99276.41
2023-05-23T00:12:14.414Z,99270.06
2023-05-23T00:12:27.216Z,99275.31
2023-05-23T00:12:39.482Z,99276.41
2023-05-23T00:12:52.544Z,99271.59
2023-05-23T00:13:05.515Z,99280.53
2023-05-23T00:13:17.737Z,99273.50
2023-05-23T00:13:29.699Z,99268.25
2023-05-23T00:13:42.243Z,99270.72
2023-05-23T00:13:54.316Z,99280.44
2023-05-23T00:14:08.283Z,99274.09
2023-05-23T00:14:20.910Z,99270.63
2023-05-23T00:14:33.930Z,99268.72
2023-05-23T00:14:46.107Z,99273.03
2023-05-23T00:14:58.067Z,99266.09
2023-05-23T00:15:10.221Z,99273.88
2023-05-23T00:15:22.514Z,99274.00
2023-05-23T00:15:34.667Z,99273.16
2023-05-23T00:15:48.584Z,99279.25
2023-05-23T00:16:00.742Z,99269.53
2023-05-23T00:16:12.742Z,99267.06
2023-05-23T00:16:24.727Z,99267.06
2023-05-23T00:16:41.214Z,99273.88
2023-05-23T00:16:53.257Z,99274.97
2023-05-23T00:17:05.836Z,99276.63
2023-05-23T00:17:17.937Z,99274.00
2023-05-23T00:17:30.369Z,99269.69
2023-05-23T00:17:42.599Z,99276.88
2023-05-23T00:17:54.692Z,99275.91
2023-05-23T00:18:08.898Z,99275.06
2023-05-23T00:18:20.952Z,99276.88
2023-05-23T00:18:32.935Z,99274.22
2023-05-23T00:18:45.543Z,99271.59
2023-05-23T00:18:59.093Z,99272.44
2023-05-23T00:19:11.907Z,99275.69
2023-05-23T00:19:23.954Z,99272.19
2023-05-23T00:19:36.458Z,99274.97
2023-05-23T00:19:48.969Z,99282.97
2023-05-23T00:20:01.465Z,99275.16
2023-05-23T00:20:13.747Z,99276.88
2023-05-23T00:20:25.986Z,99280.44
2023-05-23T00:20:42.521Z,99275.41
2023-05-23T00:20:54.494Z,99278.06
2023-05-23T00:21:06.487Z,99272.47
2023-05-23T00:21:18.482Z,99278.00
2023-05-23T00:21:30.654Z,99280.53
2023-05-23T00:21:43.833Z,99276.09
2023-05-23T00:21:58.939Z,99281.34
2023-05-23T00:22:12.559Z,99274.38
2023-05-23T00:22:24.528Z,99278.00
2023-05-23T00:22:39.746Z,99276.91
2023-05-23T00:22:52.915Z,99282.81
2023-05-23T00:23:04.945Z,99276.81
2023-05-23T00:23:20.914Z,99283.03
2023-05-23T00:23:33.946Z,99270.81
2023-05-23T00:23:46.043Z,99277.75
2023-05-23T00:23:58.128Z,99284.72
2023-05-23T00:24:10.579Z,99279.44
2023-05-23T00:24:22.633Z,99277.75
2023-05-23T00:24:34.700Z,99275.84
2023-05-23T00:24:46.701Z,99273.94
2023-05-23T00:25:02.046Z,99279.19
2023-05-23T00:25:14.115Z,99281.34
2023-05-23T00:25:33.979Z,99272.72
2023-05-23T00:25:52.556Z,99282.44
2023-05-23T00:26:04.866Z,99285.16
2023-05-23T00:26:16.877Z,99276.44
2023-05-23T00:26:30.014Z,99278.19
2023-05-23T00:26:42.037Z,99278.34
2023-05-23T00:26:54.118Z,99278.56
2023-05-23T00:27:06.096Z,99273.38
2023-05-23T00:27:18.049Z,99274.00
2023-05-23T00:27:29.994Z,99272.94
2023-05-23T00:27:41.982Z,99279.19
2023-05-23T00:27:53.936Z,99279.19
2023-05-23T00:28:06.155Z,99279.06
2023-05-23T00:28:18.981Z,99283.47
2023-05-23T00:28:30.977Z,99280.09
2023-05-23T00:28:42.922Z,99276.53
2023-05-23T00:28:56.289Z,99273.91
2023-05-23T00:29:08.413Z,99277.38
2023-05-23T00:29:23.703Z,99277.38
2023-05-23T00:29:36.221Z,99279.91
2023-05-23T00:29:48.216Z,99275.47
2023-05-23T00:30:00.210Z,99275.34
2023-05-23T00:30:12.359Z,99272.72
2023-05-23T00:30:24.349Z,99276.19
2023-05-23T00:30:36.337Z,99278.00
2023-05-23T00:30:51.655Z,99278.00
2023-05-23T00:31:04.021Z,99273.44
2023-05-23T00:31:16.118Z,99276.28
2023-05-23T00:31:28.319Z,99278.19
2023-05-23T00:31:40.388Z,99280.84
2023-05-23T00:31:54.974Z,99275.72
2023-05-23T00:32:07.061Z,99276.53
2023-05-23T00:32:19.019Z,99284.34
2023-05-23T00:32:31.111Z,99275.47
2023-05-23T00:32:43.518Z,99281.56
2023-05-23T00:32:55.833Z,99281.56
2023-05-23T00:33:10.287Z,99281.56
2023-05-23T00:33:22.662Z,99276.28
2023-05-23T00:33:34.799Z,99276.28
2023-05-23T00:33:46.803Z,99276.28
2023-05-23T00:33:58.788Z,99279.91
2023-05-23T00:34:10.879Z,99274.84
2023-05-23T00:34:22.839Z,99284.44
2023-05-23T00:34:34.837Z,99278.19
2023-05-23T00:34:46.849Z,99283.72
2023-05-23T00:34:58.861Z,99280.34
2023-05-23T00:35:10.874Z,99283.94
2023-05-23T00:35:23.762Z,99279.53
2023-05-23T00:35:35.864Z,99280.81
2023-05-23T00:35:49.024Z,99274.53
2023-05-23T00:36:00.978Z,99281.47
2023-05-23T00:36:13.369Z,99282.44
2023-05-23T00:36:25.383Z,99283.03
2023-05-23T00:36:37.716Z,99282.91
2023-05-23T00:36:50.443Z,99281.25
2023-05-23T00:37:02.647Z,99284.09
2023-05-23T00:37:15.162Z,99279.06
2023-05-23T00:37:28.279Z,99277.28
2023-05-23T00:37:40.553Z,99277.91
2023-05-23T00:37:54.178Z,99279.34
2023-05-23T00:38:07.719Z,99278.28
2023-05-23T00:38:19.708Z,99275.75
2023-05-23T00:38:31.734Z,99283.53
2023-05-23T00:38:45.884Z,99277.19
2023-05-23T00:38:57.890Z,99284.00
2023-05-23T00:39:17.193Z,99278.63
2023-05-23T00:39:29.420Z,99280.38
2023-05-23T00:39:41.368Z,99278.28
2023-05-23T00:39:53.279Z,99281.63
2023-05-23T00:40:05.919Z,99278.91
2023-05-23T00:40:21.790Z,99278.28
2023-05-23T00:40:34.699Z,99282.47
2023-05-23T00:40:46.798Z,99281.53
2023-05-23T00:40:58.810Z,99286.69
2023-05-23T00:41:10.844Z,99280.25
2023-05-23T00:41:23.037Z,99285.38
2023-05-23T00:41:36.182Z,99287.53
2023-05-23T00:41:52.663Z,99281.88
2023-05-23T00:42:06.618Z,99278.06
2023-05-23T00:42:18.619Z,99285.84
2023-05-23T00:42:32.867Z,99279.63
2023-05-23T00:42:45.381Z,99281.53
2023-05-23T00:42:57.362Z,99279.00
2023-05-23T00:43:09.327Z,99282.25
2023-05-23T00:43:22.750Z,99283.94
2023-05-23T00:43:34.783Z,99279.84
2023-05-23T00:43:46.763Z,99275.75
2023-05-23T00:43:59.880Z,99278.38
2023-05-23T00:44:11.883Z,99280.91
2023-05-23T00:44:23.879Z,99287.97
2023-05-23T00:44:36.053Z,99286.28
2023-05-23T00:44:48.434Z,99280.53
2023-05-23T00:45:03.214Z,99282.19
2023-05-23T00:45:15.833Z,99278.09
2023-05-23T00:45:27.878Z,99283.25
2023-05-23T00:45:40.214Z,99286.53
2023-05-23T00:45:52.555Z,99283.03
2023-05-23T00:46:05.160Z,99281.25
2023-05-23T00:46:17.280Z,99287.25
2023-05-23T00:46:31.371Z,99282.72
2023-05-23T00:46:47.665Z,99282.47
2023-05-23T00:47:00.374Z,99284.16
2023-05-23T00:47:13.818Z,99285.63
2023-05-23T00:47:25.900Z,99280.09
2023-05-23T00:47:42.722Z,99280.84
2023-05-23T00:47:55.386Z,99286.84
2023-05-23T00:48:10.804Z,99286.97
2023-05-23T00:48:22.949Z,99278.94
2023-05-23T00:48:34.981Z,99280.84
2023-05-23T00:48:47.237Z,99285.38
2023-05-23T00:48:59.428Z,99284.44
2023-05-23T00:49:12.444Z,99286.97
2023-05-23T00:49:27.984Z,99286.63
2023-05-23T00:49:40.031Z,99283.88
2023-05-23T00:49:52.021Z,99282.81
2023-05-23T00:50:06.767Z,99282.69
2023-05-23T00:50:19.512Z,99282.69
2023-05-23T00:50:31.577Z,99280.91
2023-05-23T00:50:43.977Z,99284.72
2023-05-23T00:50:57.224Z,99280.28
2023-05-23T00:51:09.367Z,99276.91
2023-05-23T00:51:21.773Z,99284.94
2023-05-23T00:51:33.945Z,99284.19
2023-05-23T00:51:59.041Z,99284.66
2023-05-23T00:52:11.512Z,99281.81
2023-05-23T00:52:23.509Z,99286.25
2023-05-23T00:52:36.103Z,99286.25
2023-05-23T00:52:49.712Z,99283.47
2023-05-23T00:53:01.972Z,99285.16
2023-05-23T00:53:14.072Z,99284.19
2023-05-23T00:53:27.000Z,99285.78
2023-05-23T00:53:39.134Z,99283.25
2023-05-23T00:53:51.368Z,99278.91
2023-05-23T00:54:05.762Z,99276.72
2023-05-23T00:54:24.613Z,99278.28
2023-05-23T00:54:37.600Z,99286.06
2023-05-23T00:54:49.686Z,99284.81
2023-05-23T00:55:02.088Z,99280.81
2023-05-23T00:55:14.544Z,99275.75
2023-05-23T00:55:27.051Z,99281.25
2023-05-23T00:55:39.719Z,99282.91
2023-05-23T00:55:51.853Z,99279.34
2023-05-23T00:56:04.080Z,99282.19
2023-05-23T00:56:16.560Z,99280.38
2023-05-23T00:56:29.990Z,99284.63
2023-05-23T00:56:43.836Z,99280.19
2023-05-23T00:56:56.043Z,99277.44
2023-05-23T00:57:08.142Z,99282.47
2023-05-23T00:57:20.558Z,99282.25
2023-05-23T00:57:34.875Z,99287.28
2023-05-23T00:57:47.530Z,99288.88
2023-05-23T00:58:00.056Z,99287.91
2023-05-23T00:58:13.193Z,99287.06
2023-05-23T00:58:25.536Z,99291.38
2023-05-23T00:58:37.774Z,99280.56
2023-05-23T00:58:49.794Z,99290.16
2023-05-23T00:59:01.875Z,99289.53
2023-05-23T00:59:13.990Z,99287.97
2023-05-23T00:59:26.650Z,99288.59
2023-05-23T00:59:39.006Z,99287.75
2023-05-23T00:59:51.836Z,99292.28
2023-05-23T01:00:04.340Z,99282.25
2023-05-23T01:00:17.305Z,99294.47
2023-05-23T01:00:30.227Z,99290.66
2023-05-23T01:00:45.072Z,99285.38
2023-05-23T01:00:57.282Z,99292.25
2023-05-23T01:01:09.499Z,99299.06
2023-05-23T01:01:22.254Z,99292.09
2023-05-23T01:01:36.869Z,99294.88
2023-05-23T01:01:51.225Z,99294.00
2023-05-23T01:02:03.922Z,99292.97
2023-05-23T01:02:15.971Z,99292.84
2023-05-23T01:02:28.358Z,99298.81
2023-05-23T01:02:45.143Z,99294.19
2023-05-23T01:02:57.445Z,99293.97
2023-05-23T01:03:09.637Z,99293.97
2023-05-23T01:03:21.781Z,99295.63
2023-05-23T01:03:33.979Z,99285.22
2023-05-23T01:03:48.452Z,99295.63
2023-05-23T01:04:02.931Z,99286.91
2023-05-23T01:04:16.674Z,99292.06
2023-05-23T01:04:29.488Z,99292.16
2023-05-23T01:04:42.021Z,99293.13
2023-05-23T01:04:55.608Z,99293.13
2023-05-23T01:05:07.986Z,99287.00
2023-05-23T01:05:22.359Z,99298.63
2023-05-23T01:05:34.404Z,99297.66
2023-05-23T01:05:46.491Z,99293.34
2023-05-23T01:05:58.560Z,99291.44
2023-05-23T01:06:10.856Z,99288.06
2023-05-23T01:06:22.927Z,99291.66
2023-05-23T01:06:34.913Z,99286.63
2023-05-23T01:06:49.092Z,99292.34
2023-05-23T01:07:04.759Z,99293.41
2023-05-23T01:07:16.877Z,99291.50
2023-05-23T01:07:29.050Z,99294.88
2023-05-23T01:07:41.601Z,99294.16
2023-05-23T01:07:54.208Z,99288.25
2023-05-23T01:08:06.933Z,99293.53
2023-05-23T01:08:19.013Z,99295.91
2023-05-23T01:08:30.962Z,99293.41
2023-05-23T01:08:43.244Z,99290.66
2023-05-23T01:08:55.346Z,99293.28
2023-05-23T01:09:08.105Z,99290.88
2023-05-23T01:09:21.487Z,99298.69
2023-05-23T01:09:33.596Z,99295.91
2023-05-23T01:09:46.284Z,99293.06
2023-05-23T01:09:58.677Z,99293.78
2023-05-23T01:10:11.417Z,99296.09
2023-05-23T01:10:26.577Z,99295.97
2023-05-23T01:10:38.863Z,99293.34
2023-05-23T01:10:52.249Z,99293.56
2023-05-23T01:11:11.220Z,99292.84
2023-05-23T01:11:34.963Z,99291.28
2023-05-23T01:12:07.209Z,99291.50
2023-05-23T01:12:51.032Z,99287.91
2023-05-23T01:13:33.890Z,99294.00
2023-05-23T01:13:58.119Z,99296.88
2023-05-23T01:14:15.302Z,99297.63
2023-05-23T01:14:35.297Z,99292.09
2023-05-23T01:15:10.695Z,99293.34
2023-05-23T01:15:29.534Z,99293.34
2023-05-23T01:15:54.380Z,99290.50
2023-05-23T01:16:19.105Z,99290.50
2023-05-23T01:16:56.139Z,99293.00
2023-05-23T01:17:16.148Z,99291.78
2023-05-23T01:17:47.403Z,99286.16
2023-05-23T01:18:08.151Z,99289.75
2023-05-23T01:18:43.818Z,99292.34
2023-05-23T01:19:04.783Z,99290.66
2023-05-23T01:20:01.393Z,99289.81
2023-05-23T01:20:21.416Z,99288.97
2023-05-23T01:21:01.484Z,99287.28
2023-05-23T01:21:29.777Z,99288.53
2023-05-23T01:21:46.358Z,99295.47
2023-05-23T01:22:06.462Z,99288.53
2023-05-23T01:23:02.832Z,99291.28
2023-05-23T01:23:47.224Z,99292.09
2023-05-23T01:24:11.090Z,99290.19
2023-05-23T01:24:36.449Z,99288.28
2023-05-23T01:24:57.518Z,99293.34
2023-05-23T01:25:18.577Z,99288.81
2023-05-23T01:25:46.908Z,99284.25
2023-05-23T01:25:59.682Z,99289.31
2023-05-23T01:26:52.962Z,99286.16
2023-05-23T01:27:35.975Z,99288.44
2023-05-23T01:28:01.952Z,99292.50
2023-05-23T01:28:19.084Z,99289.97
2023-05-23T01:28:37.952Z,99289.38
2023-05-23T01:28:56.139Z,99289.47
2023-05-23T01:29:13.595Z,99283.94
2023-05-23T01:29:31.986Z,99287.44
2023-05-23T01:29:46.992Z,99282.16
2023-05-23T01:30:04.698Z,99287.19
2023-05-23T01:30:19.986Z,99286.00
2023-05-23T01:30:35.429Z,99289.38
2023-05-23T01:30:50.845Z,99284.94
2023-05-23T01:31:04.664Z,99284.94
2023-05-23T01:31:18.081Z,99291.88
2023-05-23T01:31:31.120Z,99284.81
2023-05-23T01:31:45.914Z,99288.06
2023-05-23T01:31:59.883Z,99286.16
2023-05-23T01:32:13.385Z,99285.09
2023-05-23T01:32:28.858Z,99279.81
2023-05-23T01:32:42.762Z,99284.03
2023-05-23T01:32:56.559Z,99285.72
2023-05-23T01:33:09.428Z,99289.06
2023-05-23T01:33:23.669Z,99283.06
2023-05-23T01:33:38.151Z,99287.63
2023-05-23T01:33:53.301Z,99282.34
2023-05-23T01:34:06.237Z,99287.88
2023-05-23T01:34:19.286Z,99282.59
2023-05-23T01:34:31.639Z,99286.06
2023-05-23T01:34:44.036Z,99290.34
2023-05-23T01:34:59.536Z,99285.97
2023-05-23T01:35:12.404Z,99290.66
2023-05-23T01:35:28.196Z,99285.38
2023-05-23T01:35:41.299Z,99287.91
2023-05-23T01:35:55.285Z,99288.53
2023-05-23T01:36:08.968Z,99296.34
2023-05-23T01:36:21.315Z,99288.44
2023-05-23T01:36:37.308Z,99286.63
2023-05-23T01:36:56.127Z,99285.16
2023-05-23T01:37:10.500Z,99290.44
2023-05-23T01:37:34.583Z,99290.44
2023-05-23T01:37:47.154Z,99292.09
2023-05-23T01:37:59.099Z,99293.78
2023-05-23T01:38:11.094Z,99289.38
2023-05-23T01:38:23.066Z,99295.47
2023-05-23T01:38:35.017Z,99297.16
2023-05-23T01:38:47.108Z,99293.56
2023-05-23T01:39:01.062Z,99287.47
2023-05-23T01:39:13.062Z,99289.25
2023-05-23T01:39:25.075Z,99290.91
2023-05-23T01:39:38.097Z,99295.25
2023-05-23T01:39:50.151Z,99296.91
2023-05-23T01:40:02.211Z,99291.66
2023-05-23T01:40:14.212Z,99293.44
2023-05-23T01:40:26.813Z,99294.75
2023-05-23T01:40:39.011Z,99290.88
2023-05-23T01:40:51.148Z,99296.88
2023-05-23T01:41:03.175Z,99292.34
2023-05-23T01:41:15.319Z,99297.50
2023-05-23T01:41:28.272Z,99291.28
2023-05-23T01:41:40.948Z,99295.59
2023-05-23T01:41:53.932Z,99299.06
2023-05-23T01:42:06.588Z,99293.78
2023-05-23T01:42:18.696Z,99290.19
2023-05-23T01:42:30.987Z,99289.97
2023-05-23T01:42:42.974Z,99292.50
2023-05-23T01:42:57.350Z,99295.00
2023-05-23T01:43:09.603Z,99296.72
2023-05-23T01:43:25.404Z,99301.97
2023-05-23T01:43:37.687Z,99293.13
2023-05-23T01:43:49.826Z,99294.78
2023-05-23T01:44:03.296Z,99290.34
2023-05-23T01:44:15.724Z,99292.88
2023-05-23T01:44:27.799Z,99294.69
2023-05-23T01:44:40.706Z,99297.94
2023-05-23T01:44:52.691Z,99298.88
2023-05-23T01:45:05.592Z,99291.34
2023-05-23T01:45:18.258Z,99298.16
2023-05-23T01:45:31.113Z,99298.16
2023-05-23T01:45:43.972Z,99296.25
2023-05-23T01:45:57.382Z,99296.34
2023-05-23T01:46:10.003Z,99290.25
2023-05-23T01:46:23.202Z,99300.69
2023-05-23T01:46:39.156Z,99302.50
2023-05-23T01:46:51.184Z,99297.09
2023-05-23T01:47:05.708Z,99294.34
2023-05-23T01:47:18.168Z,99302.97
2023-05-23T01:47:30.356Z,99298.44
2023-05-23T01:47:43.412Z,99299.03
2023-05-23T01:47:56.949Z,99298.31
2023-05-23T01:48:10.544Z,99304.44
2023-05-23T01:48:24.271Z,99301.91
2023-05-23T01:48:37.974Z,99302.63
2023-05-23T01:48:50.869Z,99299.88
2023-05-23T01:49:04.571Z,99304.94
2023-05-23T01:49:18.494Z,99302.31
2023-05-23T01:49:31.778Z,99301.31
2023-05-23T01:49:45.077Z,99300.16
2023-05-23T01:49:58.187Z,99308.06
2023-05-23T01:50:11.368Z,99301.84
2023-05-23T01:50:24.452Z,99306.13
2023-05-23T01:50:36.509Z,99300.16
2023-05-23T01:50:49.005Z,99314.06
2023-05-23T01:51:01.796Z,99310.47
2023-05-23T01:51:14.631Z,99308.66
2023-05-23T01:51:27.272Z,99301.84
2023-05-23T01:51:40.032Z,99307.06
2023-05-23T01:51:52.584Z,99309.22
2023-05-23T01:52:05.385Z,99309.22
2023-05-23T01:52:17.551Z,99309.22
2023-05-23T01:52:29.842Z,99310.94
2023-05-23T01:52:47.236Z,99306.72
2023-05-23T01:53:00.067Z,99316.16
2023-05-23T01:53:13.228Z,99315.66
2023-05-23T01:53:26.200Z,99315.41
2023-05-23T01:53:41.104Z,99312.78
2023-05-23T01:53:53.698Z,99310.50
2023-05-23T01:54:06.290Z,99311.50
2023-05-23T01:54:19.798Z,99313.19
2023-05-23T01:54:32.438Z,99307.91
2023-05-23T01:54:45.041Z,99311.50
2023-05-23T01:54:57.685Z,99310.16
2023-05-23T01:55:11.843Z,99311.97
2023-05-23T01:55:26.512Z,99316.78
2023-05-23T01:55:41.468Z,99316.69
2023-05-23T01:55:54.320Z,99319.91
2023-05-23T01:56:06.853Z,99311.06
2023-05-23T01:56:20.572Z,99314.22
2023-05-23T01:56:33.223Z,99308.94
2023-05-23T01:56:45.433Z,99309.16
2023-05-23T01:56:57.910Z,99314.22
2023-05-23T01:57:10.831Z,99314.22
2023-05-23T01:57:24.040Z,99313.97
2023-05-23T01:57:40.083Z,99314.69
2023-05-23T01:57:56.086Z,99311.56
2023-05-23T01:58:08.420Z,99317.56
2023-05-23T01:58:20.895Z,99317.56
2023-05-23T01:58:32.885Z,99312.50
2023-05-23T01:58:44.866Z,99314.22
2023-05-23T01:58:57.359Z,99317.56
2023-05-23T01:59:09.677Z,99315.97
2023-05-23T01:59:21.687Z,99311.88
2023-05-23T01:59:33.753Z,99319.91
2023-05-23T01:59:46.118Z,99312.00
2023-05-23T01:59:58.190Z,99306.00
2023-05-23T02:00:12.120Z,99317.06
2023-05-23T02:00:25.017Z,99316.09
2023-05-23T02:00:37.119Z,99314.22
2023-05-23T02:00:49.320Z,99317.16
2023-05-23T02:01:01.450Z,99313.88
2023-05-23T02:01:13.896Z,99313.41
2023-05-23T02:01:26.132Z,99312.44
2023-05-23T02:01:38.628Z,99320.34
2023-05-23T02:01:50.990Z,99319.16
2023-05-23T02:02:03.011Z,99316.06
2023-05-23T02:02:15.152Z,99312.78
2023-05-23T02:02:27.330Z,99311.50
2023-05-23T02:02:39.421Z,99318.25
2023-05-23T02:02:51.621Z,99311.50
2023-05-23T02:03:04.331Z,99320.59
2023-05-23T02:03:16.655Z,99316.84
2023-05-23T02:03:29.022Z,99317.22
2023-05-23T02:03:41.936Z,99315.31
2023-05-23T02:03:53.988Z,99322.06
2023-05-23T02:04:06.710Z,99315.97
2023-05-23T02:04:18.798Z,99314.31
2023-05-23T02:04:30.794Z,99314.31
2023-05-23T02:04:42.776Z,99313.69
2023-05-23T02:04:57.177Z,99311.78
2023-05-23T02:05:11.828Z,99314.94
2023-05-23T02:05:23.788Z,99319.13
2023-05-23T02:05:36.050Z,99313.63
2023-05-23T02:05:48.048Z,99317.63
2023-05-23T02:05:59.981Z,99317.22
2023-05-23T02:06:12.340Z,99310.41
2023-05-23T02:06:24.384Z,99311.97
2023-05-23T02:06:36.485Z,99317.97
2023-05-23T02:06:48.442Z,99316.06
2023-05-23T02:07:00.394Z,99317.00
2023-05-23T02:07:12.427Z,99314.50
2023-05-23T02:07:24.400Z,99313.97
2023-05-23T02:07:37.015Z,99317.22
2023-05-23T02:07:48.990Z,99315.97
2023-05-23T02:08:01.012Z,99310.72
2023-05-23T02:08:13.087Z,99317.69
2023-05-23T02:08:25.187Z,99317.06
2023-05-23T02:08:37.136Z,99315.81
2023-05-23T02:08:49.100Z,99324.22
2023-05-23T02:09:01.072Z,99317.88
2023-05-23T02:09:13.219Z,99321.50
2023-05-23T02:09:25.360Z,99319.59
2023-05-23T02:09:37.437Z,99320.41
2023-05-23T02:09:50.058Z,99315.03
2023-05-23T02:10:03.316Z,99308.22
2023-05-23T02:10:15.369Z,99315.50
2023-05-23T02:10:27.331Z,99310.53
2023-05-23T02:10:39.474Z,99313.06
2023-05-23T02:10:51.428Z,99310.84
2023-05-23T02:11:03.466Z,99314.97
2023-05-23T02:11:16.019Z,99314.97
2023-05-23T02:11:28.006Z,99311.41
2023-05-23T02:11:39.966Z,99314.75
2023-05-23T02:11:52.233Z,99316.66
2023-05-23T02:12:04.394Z,99318.56
2023-05-23T02:12:16.371Z,99315.69
2023-05-23T02:12:28.355Z,99305.50
2023-05-23T02:12:40.523Z,99314.25
2023-05-23T02:12:52.525Z,99309.69
2023-05-23T02:13:04.462Z,99308.97
2023-05-23T02:13:16.447Z,99317.28
2023-05-23T02:13:28.381Z,99312.00
2023-05-23T02:13:40.424Z,99309.38
2023-05-23T02:13:52.387Z,99308.22
2023-05-23T02:14:04.334Z,99315.22
2023-05-23T02:14:16.289Z,99314.88
2023-05-23T02:14:28.468Z,99313.06
2023-05-23T02:14:42.144Z,99311.16
2023-05-23T02:14:55.117Z,99315.59
2023-05-23T02:15:07.840Z,99311.59
2023-05-23T02:15:19.885Z,99312.56
2023-05-23T02:15:31.896Z,99310.66
2023-05-23T02:15:43.851Z,99314.03
2023-05-23T02:15:55.844Z,99309.94
2023-05-23T02:16:08.127Z,99310.84
2023-05-23T02:16:20.160Z,99308.66
2023-05-23T02:16:33.215Z,99307.59
2023-05-23T02:16:45.707Z,99315.38
2023-05-23T02:16:57.898Z,99310.78
2023-05-23T02:17:10.233Z,99311.59
2023-05-23T02:17:22.365Z,99311.59
2023-05-23T02:17:34.443Z,99310.53
2023-05-23T02:17:48.176Z,99311.59
2023-05-23T02:18:02.067Z,99318.97
2023-05-23T02:18:14.131Z,99314.66
2023-05-23T02:18:27.612Z,99312.75
2023-05-23T02:18:39.714Z,99318.56
2023-05-23T02:18:53.175Z,99311.81
2023-05-23T02:19:05.327Z,99313.47
2023-05-23T02:19:17.364Z,99313.31
2023-05-23T02:19:29.389Z,99309.69
2023-05-23T02:19:41.341Z,99308.78
2023-05-23T02:19:53.300Z,99311.41
2023-05-23T02:20:06.491Z,99313.06
2023-05-23T02:20:18.962Z,99308.88
2023-05-23T02:20:30.981Z,99313.06
2023-05-23T02:20:43.000Z,99312.34
2023-05-23T02:20:58.186Z,99314.97
2023-05-23T02:21:10.336Z,99304.44
2023-05-23T02:21:23.620Z,99306.97
2023-05-23T02:21:35.850Z,99310.53
2023-05-23T02:21:47.849Z,99311.81
2023-05-23T02:22:02.867Z,99306.75
2023-05-23T02:22:14.890Z,99312.00
2023-05-23T02:22:26.979Z,99309.28
2023-05-23T02:22:38.972Z,99313.47
2023-05-23T02:22:50.911Z,99308.13
2023-05-23T02:23:02.951Z,99315.22
2023-05-23T02:23:14.928Z,99309.19
2023-05-23T02:23:26.998Z,99307.00
2023-05-23T02:23:39.009Z,99311.09
2023-05-23T02:23:51.099Z,99308.56
2023-05-23T02:24:03.199Z,99314.16
2023-05-23T02:24:15.271Z,99313.19
2023-05-23T02:24:27.334Z,99312.13
2023-05-23T02:24:39.500Z,99313.91
2023-05-23T02:24:52.368Z,99312.00
2023-05-23T02:25:04.816Z,99309.28
2023-05-23T02:25:16.873Z,99315.28
2023-05-23T02:25:28.910Z,99312.00
2023-05-23T02:25:41.179Z,99307.09
2023-05-23T02:25:53.359Z,99314.56
2023-05-23T02:26:05.525Z,99312.47
2023-05-23T02:26:18.012Z,99311.53
2023-05-23T02:26:32.857Z,99311.53
2023-05-23T02:26:44.882Z,99307.94
2023-05-23T02:26:56.857Z,99309.94
2023-05-23T02:27:11.883Z,99310.25
2023-05-23T02:27:23.888Z,99314.81
2023-05-23T02:27:35.977Z,99303.19
2023-05-23T02:27:48.088Z,99306.81
2023-05-23T02:28:00.067Z,99305.72
2023-05-23T02:28:12.963Z,99310.78
2023-05-23T02:28:26.332Z,99310.47
2023-05-23T02:28:38.263Z,99312.28
2023-05-23T02:28:50.245Z,99306.38
2023-05-23T02:29:02.338Z,99306.38
2023-05-23T02:29:14.329Z,99311.78
2023-05-23T02:29:26.311Z,99304.19
2023-05-23T02:29:38.529Z,99304.31
2023-05-23T02:29:50.508Z,99315.44
2023-05-23T02:30:02.477Z,99303.44
2023-05-23T02:30:14.654Z,99310.41
2023-05-23T02:30:26.673Z,99309.44
2023-05-23T02:30:38.701Z,99305.97
2023-05-23T02:30:50.800Z,99303.34
2023-05-23T02:31:02.965Z,99311.78
2023-05-23T02:31:15.037Z,99308.91
2023-05-23T02:31:27.801Z,99307.84
2023-05-23T02:31:39.890Z,99312.06
2023-05-23T02:31:51.973Z,99307.09
2023-05-23T02:32:04.016Z,99312.50
2023-05-23T02:32:16.140Z,99311.44
2023-05-23T02:32:28.300Z,99307.63
2023-05-23T02:32:40.351Z,99315.53
2023-05-23T02:32:53.180Z,99311.53
2023-05-23T02:33:06.531Z,99308.69
2023-05-23T02:33:22.276Z,99312.16
2023-05-23T02:33:34.230Z,99314.16
2023-05-23T02:33:46.256Z,99314.81
2023-05-23T02:33:58.212Z,99311.84
2023-05-23T02:34:10.265Z,99314.47
2023-05-23T02:34:22.226Z,99317.09
2023-05-23T02:34:34.182Z,99325.09
2023-05-23T02:34:46.831Z,99318.59
2023-05-23T02:34:59.625Z,99316.69
2023-05-23T02:35:12.597Z,99314.91
2023-05-23T02:35:24.586Z,99318.59
2023-05-23T02:35:36.620Z,99320.28
2023-05-23T02:35:50.752Z,99315.13
2023-05-23T02:36:03.501Z,99312.81
2023-05-23T02:36:15.463Z,99312.94
2023-05-23T02:36:27.478Z,99321.78
2023-05-23T02:36:39.849Z,99318.22
2023-05-23T02:36:52.051Z,99320.72
2023-05-23T02:37:04.246Z,99317.13
2023-05-23T02:37:16.519Z,99320.50
2023-05-23T02:37:28.504Z,99312.72
2023-05-23T02:37:40.488Z,99312.31
2023-05-23T02:37:52.517Z,99317.13
2023-05-23T02:38:04.486Z,99317.13
2023-05-23T02:38:16.734Z,99314.59
2023-05-23T02:38:30.727Z,99317.88
2023-05-23T02:38:42.681Z,99320.06
2023-05-23T02:38:54.672Z,99322.69
2023-05-23T02:39:06.637Z,99313.34
2023-05-23T02:39:19.220Z,99315.44
2023-05-23T02:39:31.269Z,99315.34
2023-05-23T02:39:46.388Z,99323.88
2023-05-23T02:39:58.379Z,99322.91
2023-05-23T02:40:10.660Z,99316.59
2023-05-23T02:40:22.708Z,99316.47
2023-05-23T02:40:34.682Z,99321.88